sensor_id;sensor_type;location;lat;lon;timestamp;P1;durP1;ratioP1;P2;durP2;ratioP2
78686;SDS011;68002;52.310;6.990;2023-07-28T00:01:59;11.88;;;5.22;;
78686;SDS011;68002;52.310;6.990;2023-07-28T00:04:24;9.38;;;5.68;;
78686;SDS011;68002;52.310;6.990;2023-07-28T00:06:49;10.20;;;5.38;;
78686;SDS011;68002;52.310;6.990;2023-07-28T00:09:14;9.38;;;5.22;;
78686;SDS011;68002;52.310;6.990;2023-07-28T00:11:39;8.57;;;5.57;;
78686;SDS011;68002;52.310;6.990;2023-07-28T00:14:04;10.35;;;5.45;;
78686;SDS011;68002;52.310;6.990;2023-07-28T00:16:29;9.52;;;5.32;;
78686;SDS011;68002;52.310;6.990;2023-07-28T00:18:54;9.32;;;4.75;;
78686;SDS011;68002;52.310;6.990;2023-07-28T00:21:20;9.55;;;4.90;;
78686;SDS011;68002;52.310;6.990;2023-07-28T00:23:45;9.90;;;5.13;;
78686;SDS011;68002;52.310;6.990;2023-07-28T00:26:10;10.05;;;4.75;;
78686;SDS011;68002;52.310;6.990;2023-07-28T00:28:35;11.05;;;4.78;;
78686;SDS011;68002;52.310;6.990;2023-07-28T00:31:00;8.75;;;4.55;;
78686;SDS011;68002;52.310;6.990;2023-07-28T00:33:25;12.63;;;5.72;;
78686;SDS011;68002;52.310;6.990;2023-07-28T00:35:50;10.65;;;4.53;;
78686;SDS011;68002;52.310;6.990;2023-07-28T00:38:15;11.32;;;5.57;;
78686;SDS011;68002;52.310;6.990;2023-07-28T00:40:40;10.48;;;4.35;;
78686;SDS011;68002;52.310;6.990;2023-07-28T00:43:06;11.85;;;5.80;;
78686;SDS011;68002;52.310;6.990;2023-07-28T00:45:31;14.07;;;5.88;;
78686;SDS011;68002;52.310;6.990;2023-07-28T00:47:57;10.70;;;5.57;;
78686;SDS011;68002;52.310;6.990;2023-07-28T00:50:22;11.55;;;6.07;;
78686;SDS011;68002;52.310;6.990;2023-07-28T00:52:47;12.80;;;5.53;;
78686;SDS011;68002;52.310;6.990;2023-07-28T00:55:13;15.25;;;6.53;;
78686;SDS011;68002;52.310;6.990;2023-07-28T00:57:38;13.20;;;6.50;;
78686;SDS011;68002;52.310;6.990;2023-07-28T01:00:03;12.57;;;6.30;;
78686;SDS011;68002;52.310;6.990;2023-07-28T01:02:28;14.43;;;6.63;;
78686;SDS011;68002;52.310;6.990;2023-07-28T01:04:53;12.80;;;6.23;;
78686;SDS011;68002;52.310;6.990;2023-07-28T01:10:05;13.52;;;6.90;;
78686;SDS011;68002;52.310;6.990;2023-07-28T01:12:32;12.32;;;7.93;;
78686;SDS011;68002;52.310;6.990;2023-07-28T01:14:57;13.63;;;7.28;;
78686;SDS011;68002;52.310;6.990;2023-07-28T01:17:22;15.50;;;7.25;;
78686;SDS011;68002;52.310;6.990;2023-07-28T01:19:47;13.97;;;7.20;;
78686;SDS011;68002;52.310;6.990;2023-07-28T01:25:01;14.85;;;7.80;;
78686;SDS011;68002;52.310;6.990;2023-07-28T01:27:29;15.48;;;7.07;;
78686;SDS011;68002;52.310;6.990;2023-07-28T01:29:55;14.50;;;6.20;;
78686;SDS011;68002;52.310;6.990;2023-07-28T01:32:20;13.68;;;7.47;;
78686;SDS011;68002;52.310;6.990;2023-07-28T01:34:45;14.32;;;8.02;;
78686;SDS011;68002;52.310;6.990;2023-07-28T01:37:10;14.32;;;7.63;;
78686;SDS011;68002;52.310;6.990;2023-07-28T01:39:35;15.90;;;8.35;;
78686;SDS011;68002;52.310;6.990;2023-07-28T01:42:00;13.88;;;7.47;;
78686;SDS011;68002;52.310;6.990;2023-07-28T01:44:25;15.27;;;8.23;;
78686;SDS011;68002;52.310;6.990;2023-07-28T01:46:51;15.05;;;8.13;;
78686;SDS011;68002;52.310;6.990;2023-07-28T01:49:16;15.35;;;8.57;;
78686;SDS011;68002;52.310;6.990;2023-07-28T01:51:41;14.75;;;8.93;;
78686;SDS011;68002;52.310;6.990;2023-07-28T01:54:06;14.68;;;7.72;;
78686;SDS011;68002;52.310;6.990;2023-07-28T01:56:31;18.70;;;9.25;;
78686;SDS011;68002;52.310;6.990;2023-07-28T01:58:56;18.42;;;8.35;;
78686;SDS011;68002;52.310;6.990;2023-07-28T02:01:21;14.35;;;7.40;;
78686;SDS011;68002;52.310;6.990;2023-07-28T02:03:46;16.90;;;8.95;;
78686;SDS011;68002;52.310;6.990;2023-07-28T02:06:11;17.30;;;8.48;;
78686;SDS011;68002;52.310;6.990;2023-07-28T02:08:36;19.15;;;9.13;;
78686;SDS011;68002;52.310;6.990;2023-07-28T02:11:02;16.05;;;8.60;;
78686;SDS011;68002;52.310;6.990;2023-07-28T02:13:27;18.52;;;8.32;;
78686;SDS011;68002;52.310;6.990;2023-07-28T02:15:52;18.67;;;7.88;;
78686;SDS011;68002;52.310;6.990;2023-07-28T02:18:17;16.95;;;8.20;;
78686;SDS011;68002;52.310;6.990;2023-07-28T02:20:42;16.10;;;7.18;;
78686;SDS011;68002;52.310;6.990;2023-07-28T02:23:07;20.38;;;8.85;;
78686;SDS011;68002;52.310;6.990;2023-07-28T02:25:32;14.80;;;7.15;;
78686;SDS011;68002;52.310;6.990;2023-07-28T02:27:57;19.35;;;8.63;;
78686;SDS011;68002;52.310;6.990;2023-07-28T02:30:22;17.08;;;8.85;;
78686;SDS011;68002;52.310;6.990;2023-07-28T02:32:48;18.40;;;8.43;;
78686;SDS011;68002;52.310;6.990;2023-07-28T02:35:13;16.63;;;8.27;;
78686;SDS011;68002;52.310;6.990;2023-07-28T02:37:38;18.20;;;8.48;;
78686;SDS011;68002;52.310;6.990;2023-07-28T02:40:03;19.02;;;8.55;;
78686;SDS011;68002;52.310;6.990;2023-07-28T02:42:28;18.00;;;8.93;;
78686;SDS011;68002;52.310;6.990;2023-07-28T02:44:53;22.70;;;8.98;;
78686;SDS011;68002;52.310;6.990;2023-07-28T02:47:19;18.13;;;8.05;;
78686;SDS011;68002;52.310;6.990;2023-07-28T02:49:44;18.10;;;7.82;;
78686;SDS011;68002;52.310;6.990;2023-07-28T02:52:09;20.15;;;9.77;;
78686;SDS011;68002;52.310;6.990;2023-07-28T02:54:34;17.92;;;7.43;;
78686;SDS011;68002;52.310;6.990;2023-07-28T02:56:59;18.67;;;8.10;;
78686;SDS011;68002;52.310;6.990;2023-07-28T02:59:24;14.35;;;7.38;;
78686;SDS011;68002;52.310;6.990;2023-07-28T03:01:49;16.97;;;8.90;;
78686;SDS011;68002;52.310;6.990;2023-07-28T03:04:15;19.60;;;9.17;;
78686;SDS011;68002;52.310;6.990;2023-07-28T03:06:40;19.60;;;9.07;;
78686;SDS011;68002;52.310;6.990;2023-07-28T03:09:05;17.42;;;8.18;;
78686;SDS011;68002;52.310;6.990;2023-07-28T03:11:30;19.33;;;7.28;;
78686;SDS011;68002;52.310;6.990;2023-07-28T03:13:55;16.23;;;7.90;;
78686;SDS011;68002;52.310;6.990;2023-07-28T03:16:20;17.17;;;8.48;;
78686;SDS011;68002;52.310;6.990;2023-07-28T03:18:45;18.10;;;7.95;;
78686;SDS011;68002;52.310;6.990;2023-07-28T03:21:10;15.20;;;7.13;;
78686;SDS011;68002;52.310;6.990;2023-07-28T03:23:35;16.05;;;7.78;;
78686;SDS011;68002;52.310;6.990;2023-07-28T03:26:01;15.88;;;7.72;;
78686;SDS011;68002;52.310;6.990;2023-07-28T03:28:26;18.10;;;8.87;;
78686;SDS011;68002;52.310;6.990;2023-07-28T03:30:51;19.23;;;8.63;;
78686;SDS011;68002;52.310;6.990;2023-07-28T03:33:16;16.17;;;7.70;;
78686;SDS011;68002;52.310;6.990;2023-07-28T03:35:41;17.08;;;8.65;;
78686;SDS011;68002;52.310;6.990;2023-07-28T03:38:06;17.05;;;7.55;;
78686;SDS011;68002;52.310;6.990;2023-07-28T03:40:31;17.83;;;8.18;;
78686;SDS011;68002;52.310;6.990;2023-07-28T03:42:56;16.60;;;7.18;;
78686;SDS011;68002;52.310;6.990;2023-07-28T03:45:22;17.47;;;8.10;;
78686;SDS011;68002;52.310;6.990;2023-07-28T03:47:47;14.13;;;6.87;;
78686;SDS011;68002;52.310;6.990;2023-07-28T03:50:12;15.93;;;8.27;;
78686;SDS011;68002;52.310;6.990;2023-07-28T03:52:37;12.98;;;7.60;;
78686;SDS011;68002;52.310;6.990;2023-07-28T03:55:02;12.32;;;7.03;;
78686;SDS011;68002;52.310;6.990;2023-07-28T03:57:27;14.15;;;7.80;;
78686;SDS011;68002;52.310;6.990;2023-07-28T03:59:53;16.52;;;8.25;;
78686;SDS011;68002;52.310;6.990;2023-07-28T04:02:18;16.33;;;8.75;;
78686;SDS011;68002;52.310;6.990;2023-07-28T04:04:43;15.03;;;6.80;;
78686;SDS011;68002;52.310;6.990;2023-07-28T04:07:08;13.65;;;7.57;;
78686;SDS011;68002;52.310;6.990;2023-07-28T04:09:33;15.18;;;8.00;;
78686;SDS011;68002;52.310;6.990;2023-07-28T04:11:58;14.18;;;6.80;;
78686;SDS011;68002;52.310;6.990;2023-07-28T04:14:23;14.00;;;7.30;;
78686;SDS011;68002;52.310;6.990;2023-07-28T04:16:48;15.73;;;7.25;;
78686;SDS011;68002;52.310;6.990;2023-07-28T04:19:14;19.17;;;10.60;;
78686;SDS011;68002;52.310;6.990;2023-07-28T04:21:39;16.40;;;9.13;;
78686;SDS011;68002;52.310;6.990;2023-07-28T04:24:04;16.65;;;8.50;;
78686;SDS011;68002;52.310;6.990;2023-07-28T04:26:29;15.87;;;9.70;;
78686;SDS011;68002;52.310;6.990;2023-07-28T04:28:54;15.60;;;8.27;;
78686;SDS011;68002;52.310;6.990;2023-07-28T04:31:19;15.30;;;8.20;;
78686;SDS011;68002;52.310;6.990;2023-07-28T04:33:44;12.70;;;7.03;;
78686;SDS011;68002;52.310;6.990;2023-07-28T04:36:10;16.00;;;8.85;;
78686;SDS011;68002;52.310;6.990;2023-07-28T04:38:35;17.38;;;7.50;;
78686;SDS011;68002;52.310;6.990;2023-07-28T04:41:00;16.80;;;9.38;;
78686;SDS011;68002;52.310;6.990;2023-07-28T04:43:25;15.15;;;7.18;;
78686;SDS011;68002;52.310;6.990;2023-07-28T04:45:50;17.03;;;9.40;;
78686;SDS011;68002;52.310;6.990;2023-07-28T04:48:15;16.10;;;8.32;;
78686;SDS011;68002;52.310;6.990;2023-07-28T04:50:40;16.52;;;8.85;;
78686;SDS011;68002;52.310;6.990;2023-07-28T04:53:05;18.58;;;9.70;;
78686;SDS011;68002;52.310;6.990;2023-07-28T04:55:31;17.52;;;9.60;;
78686;SDS011;68002;52.310;6.990;2023-07-28T04:57:56;19.08;;;9.55;;
78686;SDS011;68002;52.310;6.990;2023-07-28T05:00:21;15.53;;;8.77;;
78686;SDS011;68002;52.310;6.990;2023-07-28T05:02:46;18.57;;;9.30;;
78686;SDS011;68002;52.310;6.990;2023-07-28T05:05:11;17.00;;;8.88;;
78686;SDS011;68002;52.310;6.990;2023-07-28T05:07:36;17.60;;;9.63;;
78686;SDS011;68002;52.310;6.990;2023-07-28T05:10:01;15.95;;;8.45;;
78686;SDS011;68002;52.310;6.990;2023-07-28T05:12:27;16.73;;;8.83;;
78686;SDS011;68002;52.310;6.990;2023-07-28T05:14:52;16.35;;;8.70;;
78686;SDS011;68002;52.310;6.990;2023-07-28T05:17:17;18.38;;;9.05;;
78686;SDS011;68002;52.310;6.990;2023-07-28T05:19:42;14.50;;;8.27;;
78686;SDS011;68002;52.310;6.990;2023-07-28T05:22:07;15.35;;;8.05;;
78686;SDS011;68002;52.310;6.990;2023-07-28T05:24:35;15.10;;;7.63;;
78686;SDS011;68002;52.310;6.990;2023-07-28T05:27:00;19.55;;;9.65;;
78686;SDS011;68002;52.310;6.990;2023-07-28T05:29:25;16.45;;;9.00;;
78686;SDS011;68002;52.310;6.990;2023-07-28T05:31:50;18.17;;;8.80;;
78686;SDS011;68002;52.310;6.990;2023-07-28T05:34:15;18.85;;;8.90;;
78686;SDS011;68002;52.310;6.990;2023-07-28T05:36:41;17.80;;;9.33;;
78686;SDS011;68002;52.310;6.990;2023-07-28T05:39:06;20.40;;;9.77;;
78686;SDS011;68002;52.310;6.990;2023-07-28T05:41:31;20.20;;;9.80;;
78686;SDS011;68002;52.310;6.990;2023-07-28T05:43:56;20.13;;;9.77;;
78686;SDS011;68002;52.310;6.990;2023-07-28T05:46:21;17.33;;;9.82;;
78686;SDS011;68002;52.310;6.990;2023-07-28T05:48:46;18.85;;;9.73;;
78686;SDS011;68002;52.310;6.990;2023-07-28T05:51:11;22.65;;;8.85;;
78686;SDS011;68002;52.310;6.990;2023-07-28T05:53:36;16.17;;;9.23;;
78686;SDS011;68002;52.310;6.990;2023-07-28T05:56:01;19.30;;;9.63;;
78686;SDS011;68002;52.310;6.990;2023-07-28T05:58:27;21.27;;;10.33;;
78686;SDS011;68002;52.310;6.990;2023-07-28T06:00:52;19.23;;;8.98;;
78686;SDS011;68002;52.310;6.990;2023-07-28T06:03:17;21.20;;;9.88;;
78686;SDS011;68002;52.310;6.990;2023-07-28T06:05:42;21.30;;;10.07;;
78686;SDS011;68002;52.310;6.990;2023-07-28T06:08:07;22.23;;;9.63;;
78686;SDS011;68002;52.310;6.990;2023-07-28T06:10:33;14.55;;;8.27;;
78686;SDS011;68002;52.310;6.990;2023-07-28T06:12:58;18.30;;;9.03;;
78686;SDS011;68002;52.310;6.990;2023-07-28T06:15:23;19.30;;;9.87;;
78686;SDS011;68002;52.310;6.990;2023-07-28T06:17:48;19.35;;;10.52;;
78686;SDS011;68002;52.310;6.990;2023-07-28T06:20:13;21.52;;;11.30;;
78686;SDS011;68002;52.310;6.990;2023-07-28T06:22:38;21.17;;;11.07;;
78686;SDS011;68002;52.310;6.990;2023-07-28T06:25:03;18.02;;;10.02;;
78686;SDS011;68002;52.310;6.990;2023-07-28T06:27:29;19.53;;;9.93;;
78686;SDS011;68002;52.310;6.990;2023-07-28T06:29:54;19.50;;;8.82;;
78686;SDS011;68002;52.310;6.990;2023-07-28T06:32:19;21.48;;;10.30;;
78686;SDS011;68002;52.310;6.990;2023-07-28T06:34:44;18.30;;;9.07;;
78686;SDS011;68002;52.310;6.990;2023-07-28T06:37:09;16.67;;;8.45;;
78686;SDS011;68002;52.310;6.990;2023-07-28T06:39:34;16.73;;;8.43;;
78686;SDS011;68002;52.310;6.990;2023-07-28T06:41:59;19.98;;;10.10;;
78686;SDS011;68002;52.310;6.990;2023-07-28T06:44:24;18.55;;;9.13;;
78686;SDS011;68002;52.310;6.990;2023-07-28T06:46:49;20.30;;;9.93;;
78686;SDS011;68002;52.310;6.990;2023-07-28T06:49:15;15.90;;;9.67;;
78686;SDS011;68002;52.310;6.990;2023-07-28T06:51:40;16.35;;;9.57;;
78686;SDS011;68002;52.310;6.990;2023-07-28T06:54:05;16.45;;;9.48;;
78686;SDS011;68002;52.310;6.990;2023-07-28T06:56:30;16.95;;;9.85;;
78686;SDS011;68002;52.310;6.990;2023-07-28T06:58:55;18.48;;;11.55;;
78686;SDS011;68002;52.310;6.990;2023-07-28T07:01:20;15.85;;;8.77;;
78686;SDS011;68002;52.310;6.990;2023-07-28T07:03:45;17.13;;;8.75;;
78686;SDS011;68002;52.310;6.990;2023-07-28T07:06:10;15.88;;;9.00;;
78686;SDS011;68002;52.310;6.990;2023-07-28T07:08:35;14.52;;;8.82;;
78686;SDS011;68002;52.310;6.990;2023-07-28T07:11:01;16.50;;;9.10;;
78686;SDS011;68002;52.310;6.990;2023-07-28T07:13:26;14.13;;;8.30;;
78686;SDS011;68002;52.310;6.990;2023-07-28T07:15:51;17.00;;;8.85;;
78686;SDS011;68002;52.310;6.990;2023-07-28T07:18:16;14.40;;;9.18;;
78686;SDS011;68002;52.310;6.990;2023-07-28T07:20:41;15.45;;;8.48;;
78686;SDS011;68002;52.310;6.990;2023-07-28T07:23:06;12.80;;;7.13;;
78686;SDS011;68002;52.310;6.990;2023-07-28T07:25:32;15.13;;;8.00;;
78686;SDS011;68002;52.310;6.990;2023-07-28T07:27:57;15.27;;;8.53;;
78686;SDS011;68002;52.310;6.990;2023-07-28T07:30:22;13.05;;;7.60;;
78686;SDS011;68002;52.310;6.990;2023-07-28T07:32:47;14.48;;;7.80;;
78686;SDS011;68002;52.310;6.990;2023-07-28T07:35:13;15.43;;;7.93;;
78686;SDS011;68002;52.310;6.990;2023-07-28T07:37:38;11.90;;;7.03;;
78686;SDS011;68002;52.310;6.990;2023-07-28T07:40:03;14.33;;;7.37;;
78686;SDS011;68002;52.310;6.990;2023-07-28T07:42:30;14.52;;;8.93;;
78686;SDS011;68002;52.310;6.990;2023-07-28T07:45:04;13.25;;;7.80;;
78686;SDS011;68002;52.310;6.990;2023-07-28T07:47:30;11.30;;;6.60;;
78686;SDS011;68002;52.310;6.990;2023-07-28T07:49:55;12.50;;;7.82;;
78686;SDS011;68002;52.310;6.990;2023-07-28T07:52:21;10.88;;;7.70;;
78686;SDS011;68002;52.310;6.990;2023-07-28T07:54:46;9.05;;;6.65;;
78686;SDS011;68002;52.310;6.990;2023-07-28T07:57:11;8.10;;;5.97;;
78686;SDS011;68002;52.310;6.990;2023-07-28T07:59:36;7.38;;;4.72;;
78686;SDS011;68002;52.310;6.990;2023-07-28T08:02:01;6.22;;;4.20;;
78686;SDS011;68002;52.310;6.990;2023-07-28T08:04:27;5.30;;;4.03;;
78686;SDS011;68002;52.310;6.990;2023-07-28T08:06:52;5.40;;;3.78;;
78686;SDS011;68002;52.310;6.990;2023-07-28T08:09:17;4.63;;;3.30;;
78686;SDS011;68002;52.310;6.990;2023-07-28T08:11:42;5.05;;;3.17;;
78686;SDS011;68002;52.310;6.990;2023-07-28T08:14:07;6.93;;;3.67;;
78686;SDS011;68002;52.310;6.990;2023-07-28T08:16:32;7.60;;;3.97;;
78686;SDS011;68002;52.310;6.990;2023-07-28T08:18:57;6.10;;;4.45;;
78686;SDS011;68002;52.310;6.990;2023-07-28T08:21:22;6.43;;;3.97;;
78686;SDS011;68002;52.310;6.990;2023-07-28T08:23:48;8.30;;;5.47;;
78686;SDS011;68002;52.310;6.990;2023-07-28T08:26:13;7.87;;;4.87;;
78686;SDS011;68002;52.310;6.990;2023-07-28T08:28:38;7.93;;;3.78;;
78686;SDS011;68002;52.310;6.990;2023-07-28T08:31:03;6.82;;;3.85;;
78686;SDS011;68002;52.310;6.990;2023-07-28T08:33:28;6.40;;;3.75;;
78686;SDS011;68002;52.310;6.990;2023-07-28T08:35:53;7.47;;;4.75;;
78686;SDS011;68002;52.310;6.990;2023-07-28T08:38:18;8.52;;;4.75;;
78686;SDS011;68002;52.310;6.990;2023-07-28T08:40:44;8.85;;;5.55;;
78686;SDS011;68002;52.310;6.990;2023-07-28T08:43:09;10.50;;;6.10;;
78686;SDS011;68002;52.310;6.990;2023-07-28T08:45:34;11.50;;;6.60;;
78686;SDS011;68002;52.310;6.990;2023-07-28T08:47:59;11.63;;;6.60;;
78686;SDS011;68002;52.310;6.990;2023-07-28T08:50:24;12.55;;;7.43;;
78686;SDS011;68002;52.310;6.990;2023-07-28T08:52:49;13.63;;;7.63;;
78686;SDS011;68002;52.310;6.990;2023-07-28T08:55:14;14.18;;;7.88;;
78686;SDS011;68002;52.310;6.990;2023-07-28T08:57:40;14.50;;;7.93;;
78686;SDS011;68002;52.310;6.990;2023-07-28T09:00:06;11.80;;;7.10;;
78686;SDS011;68002;52.310;6.990;2023-07-28T09:02:31;13.80;;;8.63;;
78686;SDS011;68002;52.310;6.990;2023-07-28T09:04:57;12.80;;;7.70;;
78686;SDS011;68002;52.310;6.990;2023-07-28T09:07:22;14.18;;;8.30;;
78686;SDS011;68002;52.310;6.990;2023-07-28T09:09:47;13.07;;;7.55;;
78686;SDS011;68002;52.310;6.990;2023-07-28T09:12:12;14.10;;;7.60;;
78686;SDS011;68002;52.310;6.990;2023-07-28T09:14:37;12.68;;;7.75;;
78686;SDS011;68002;52.310;6.990;2023-07-28T09:17:09;13.57;;;7.68;;
78686;SDS011;68002;52.310;6.990;2023-07-28T09:19:34;12.18;;;7.55;;
78686;SDS011;68002;52.310;6.990;2023-07-28T09:22:00;13.50;;;7.22;;
78686;SDS011;68002;52.310;6.990;2023-07-28T09:24:31;14.02;;;7.63;;
78686;SDS011;68002;52.310;6.990;2023-07-28T09:26:57;13.65;;;8.05;;
78686;SDS011;68002;52.310;6.990;2023-07-28T09:29:22;13.38;;;7.25;;
78686;SDS011;68002;52.310;6.990;2023-07-28T09:31:48;14.67;;;8.30;;
78686;SDS011;68002;52.310;6.990;2023-07-28T09:34:22;13.98;;;8.05;;
78686;SDS011;68002;52.310;6.990;2023-07-28T09:36:48;12.40;;;6.80;;
78686;SDS011;68002;52.310;6.990;2023-07-28T09:39:13;12.00;;;6.60;;
78686;SDS011;68002;52.310;6.990;2023-07-28T09:41:39;12.00;;;6.93;;
78686;SDS011;68002;52.310;6.990;2023-07-28T09:44:04;11.93;;;6.82;;
78686;SDS011;68002;52.310;6.990;2023-07-28T09:46:30;12.48;;;7.13;;
78686;SDS011;68002;52.310;6.990;2023-07-28T09:48:59;14.32;;;7.97;;
78686;SDS011;68002;52.310;6.990;2023-07-28T09:51:26;14.85;;;8.27;;
78686;SDS011;68002;52.310;6.990;2023-07-28T09:53:55;15.63;;;8.52;;
78686;SDS011;68002;52.310;6.990;2023-07-28T09:56:22;15.75;;;8.15;;
78686;SDS011;68002;52.310;6.990;2023-07-28T09:58:50;16.38;;;9.05;;
78686;SDS011;68002;52.310;6.990;2023-07-28T10:01:15;19.73;;;9.52;;
78686;SDS011;68002;52.310;6.990;2023-07-28T10:03:40;16.63;;;8.40;;
78686;SDS011;68002;52.310;6.990;2023-07-28T10:06:05;19.77;;;10.23;;
78686;SDS011;68002;52.310;6.990;2023-07-28T10:08:31;17.03;;;8.53;;
78686;SDS011;68002;52.310;6.990;2023-07-28T10:10:56;19.23;;;10.00;;
78686;SDS011;68002;52.310;6.990;2023-07-28T10:13:22;19.70;;;10.30;;
78686;SDS011;68002;52.310;6.990;2023-07-28T10:15:47;18.00;;;9.30;;
78686;SDS011;68002;52.310;6.990;2023-07-28T10:18:12;17.38;;;10.07;;
78686;SDS011;68002;52.310;6.990;2023-07-28T10:20:38;19.02;;;10.27;;
78686;SDS011;68002;52.310;6.990;2023-07-28T10:23:16;16.70;;;10.25;;
78686;SDS011;68002;52.310;6.990;2023-07-28T10:25:42;17.38;;;9.05;;
78686;SDS011;68002;52.310;6.990;2023-07-28T10:28:27;17.80;;;9.80;;
78686;SDS011;68002;52.310;6.990;2023-07-28T10:30:53;19.25;;;9.38;;
78686;SDS011;68002;52.310;6.990;2023-07-28T10:33:25;16.48;;;9.05;;
78686;SDS011;68002;52.310;6.990;2023-07-28T10:35:51;15.82;;;8.43;;
78686;SDS011;68002;52.310;6.990;2023-07-28T10:38:31;18.60;;;10.68;;
78686;SDS011;68002;52.310;6.990;2023-07-28T10:43:22;14.90;;;7.93;;
78686;SDS011;68002;52.310;6.990;2023-07-28T10:45:47;14.32;;;9.18;;
78686;SDS011;68002;52.310;6.990;2023-07-28T10:48:12;12.10;;;7.13;;
78686;SDS011;68002;52.310;6.990;2023-07-28T10:50:37;14.23;;;8.30;;
78686;SDS011;68002;52.310;6.990;2023-07-28T10:53:02;15.88;;;7.93;;
78686;SDS011;68002;52.310;6.990;2023-07-28T10:55:27;12.23;;;7.57;;
78686;SDS011;68002;52.310;6.990;2023-07-28T10:57:53;12.27;;;8.13;;
78686;SDS011;68002;52.310;6.990;2023-07-28T11:00:19;13.82;;;7.82;;
78686;SDS011;68002;52.310;6.990;2023-07-28T11:02:45;14.20;;;8.60;;
78686;SDS011;68002;52.310;6.990;2023-07-28T11:05:10;13.70;;;8.23;;
78686;SDS011;68002;52.310;6.990;2023-07-28T11:07:36;13.27;;;8.10;;
78686;SDS011;68002;52.310;6.990;2023-07-28T11:10:01;12.20;;;6.90;;
78686;SDS011;68002;52.310;6.990;2023-07-28T11:12:27;12.80;;;8.30;;
78686;SDS011;68002;52.310;6.990;2023-07-28T11:14:52;13.77;;;8.70;;
78686;SDS011;68002;52.310;6.990;2023-07-28T11:17:17;13.33;;;8.67;;
78686;SDS011;68002;52.310;6.990;2023-07-28T11:19:42;11.55;;;7.18;;
78686;SDS011;68002;52.310;6.990;2023-07-28T11:22:07;791.92;;;648.83;;
78686;SDS011;68002;52.310;6.990;2023-07-28T11:24:32;1150.13;;;851.85;;
78686;SDS011;68002;52.310;6.990;2023-07-28T11:26:57;1015.35;;;778.70;;
78686;SDS011;68002;52.310;6.990;2023-07-28T11:29:23;919.92;;;696.40;;
78686;SDS011;68002;52.310;6.990;2023-07-28T11:31:48;751.93;;;397.93;;
78686;SDS011;68002;52.310;6.990;2023-07-28T11:34:16;812.97;;;474.70;;
78686;SDS011;68002;52.310;6.990;2023-07-28T11:36:42;88.15;;;48.30;;
78686;SDS011;68002;52.310;6.990;2023-07-28T11:39:07;10.77;;;6.75;;
78686;SDS011;68002;52.310;6.990;2023-07-28T11:41:32;7.37;;;5.10;;
78686;SDS011;68002;52.310;6.990;2023-07-28T11:43:58;8.73;;;5.32;;
78686;SDS011;68002;52.310;6.990;2023-07-28T11:46:39;7.85;;;4.75;;
78686;SDS011;68002;52.310;6.990;2023-07-28T11:49:11;7.95;;;4.32;;
78686;SDS011;68002;52.310;6.990;2023-07-28T11:51:54;22.50;;;12.40;;
78686;SDS011;68002;52.310;6.990;2023-07-28T11:54:24;7.47;;;5.38;;
78686;SDS011;68002;52.310;6.990;2023-07-28T11:56:49;7.00;;;5.13;;
78686;SDS011;68002;52.310;6.990;2023-07-28T11:59:15;6.85;;;4.18;;
78686;SDS011;68002;52.310;6.990;2023-07-28T12:01:53;6.40;;;4.57;;
78686;SDS011;68002;52.310;6.990;2023-07-28T12:04:29;7.50;;;4.32;;
78686;SDS011;68002;52.310;6.990;2023-07-28T12:07:10;7.38;;;4.65;;
78686;SDS011;68002;52.310;6.990;2023-07-28T12:12:13;6.03;;;4.15;;
78686;SDS011;68002;52.310;6.990;2023-07-28T12:14:38;9.50;;;4.90;;
78686;SDS011;68002;52.310;6.990;2023-07-28T12:17:03;8.63;;;4.45;;
78686;SDS011;68002;52.310;6.990;2023-07-28T12:19:40;7.68;;;5.03;;
78686;SDS011;68002;52.310;6.990;2023-07-28T12:24:30;5.95;;;4.00;;
78686;SDS011;68002;52.310;6.990;2023-07-28T12:26:55;763.33;;;343.67;;
78686;SDS011;68002;52.310;6.990;2023-07-28T12:29:20;400.05;;;165.10;;
78686;SDS011;68002;52.310;6.990;2023-07-28T12:31:45;862.38;;;416.17;;
78686;SDS011;68002;52.310;6.990;2023-07-28T12:34:10;1005.90;;;531.25;;
78686;SDS011;68002;52.310;6.990;2023-07-28T12:36:35;903.72;;;429.80;;
78686;SDS011;68002;52.310;6.990;2023-07-28T12:39:01;855.33;;;343.83;;
78686;SDS011;68002;52.310;6.990;2023-07-28T12:41:26;947.10;;;391.10;;
78686;SDS011;68002;52.310;6.990;2023-07-28T12:43:51;1016.65;;;469.70;;
78686;SDS011;68002;52.310;6.990;2023-07-28T12:46:16;931.92;;;426.60;;
78686;SDS011;68002;52.310;6.990;2023-07-28T12:48:41;922.78;;;435.58;;
78686;SDS011;68002;52.310;6.990;2023-07-28T12:51:06;921.92;;;407.67;;
78686;SDS011;68002;52.310;6.990;2023-07-28T12:53:31;928.85;;;383.98;;
78686;SDS011;68002;52.310;6.990;2023-07-28T12:55:56;956.88;;;384.60;;
78686;SDS011;68002;52.310;6.990;2023-07-28T12:58:22;1007.43;;;447.03;;
78686;SDS011;68002;52.310;6.990;2023-07-28T13:00:47;989.70;;;442.95;;
78686;SDS011;68002;52.310;6.990;2023-07-28T13:03:12;868.60;;;378.40;;
78686;SDS011;68002;52.310;6.990;2023-07-28T13:05:37;1129.60;;;482.98;;
78686;SDS011;68002;52.310;6.990;2023-07-28T13:08:02;922.40;;;392.85;;
78686;SDS011;68002;52.310;6.990;2023-07-28T13:10:27;885.77;;;363.93;;
78686;SDS011;68002;52.310;6.990;2023-07-28T13:12:52;947.28;;;385.38;;
78686;SDS011;68002;52.310;6.990;2023-07-28T13:15:17;1166.10;;;519.83;;
78686;SDS011;68002;52.310;6.990;2023-07-28T13:17:43;1142.35;;;464.20;;
78686;SDS011;68002;52.310;6.990;2023-07-28T13:20:08;1123.25;;;494.67;;
78686;SDS011;68002;52.310;6.990;2023-07-28T13:22:33;991.53;;;369.27;;
78686;SDS011;68002;52.310;6.990;2023-07-28T13:24:58;1175.28;;;458.02;;
78686;SDS011;68002;52.310;6.990;2023-07-28T13:27:23;1105.25;;;417.33;;
78686;SDS011;68002;52.310;6.990;2023-07-28T13:29:48;1008.65;;;377.42;;
78686;SDS011;68002;52.310;6.990;2023-07-28T13:32:17;1046.03;;;387.85;;
78686;SDS011;68002;52.310;6.990;2023-07-28T13:34:43;1175.05;;;418.20;;
78686;SDS011;68002;52.310;6.990;2023-07-28T13:37:08;1173.57;;;422.63;;
78686;SDS011;68002;52.310;6.990;2023-07-28T13:39:33;1079.03;;;410.52;;
78686;SDS011;68002;52.310;6.990;2023-07-28T13:42:00;1038.25;;;391.95;;
78686;SDS011;68002;52.310;6.990;2023-07-28T13:44:25;1035.13;;;399.00;;
78686;SDS011;68002;52.310;6.990;2023-07-28T13:46:50;1092.60;;;422.63;;
78686;SDS011;68002;52.310;6.990;2023-07-28T13:49:15;1153.85;;;479.77;;
78686;SDS011;68002;52.310;6.990;2023-07-28T13:51:40;1100.03;;;474.73;;
78686;SDS011;68002;52.310;6.990;2023-07-28T13:54:05;1014.97;;;407.70;;
78686;SDS011;68002;52.310;6.990;2023-07-28T13:56:30;1040.55;;;401.25;;
78686;SDS011;68002;52.310;6.990;2023-07-28T13:58:56;987.10;;;393.10;;
78686;SDS011;68002;52.310;6.990;2023-07-28T14:01:21;1065.43;;;409.10;;
78686;SDS011;68002;52.310;6.990;2023-07-28T14:03:46;1009.05;;;387.08;;
78686;SDS011;68002;52.310;6.990;2023-07-28T14:06:11;1008.35;;;402.98;;
78686;SDS011;68002;52.310;6.990;2023-07-28T14:08:36;938.60;;;380.17;;
78686;SDS011;68002;52.310;6.990;2023-07-28T14:11:01;1007.58;;;432.98;;
78686;SDS011;68002;52.310;6.990;2023-07-28T14:13:26;948.50;;;415.35;;
78686;SDS011;68002;52.310;6.990;2023-07-28T14:15:51;957.47;;;419.33;;
78686;SDS011;68002;52.310;6.990;2023-07-28T14:18:16;954.92;;;429.83;;
78686;SDS011;68002;52.310;6.990;2023-07-28T14:20:42;986.13;;;429.70;;
78686;SDS011;68002;52.310;6.990;2023-07-28T14:25:47;1016.42;;;451.80;;
78686;SDS011;68002;52.310;6.990;2023-07-28T14:28:12;1043.20;;;460.73;;
78686;SDS011;68002;52.310;6.990;2023-07-28T14:30:37;1084.22;;;502.85;;
78686;SDS011;68002;52.310;6.990;2023-07-28T14:33:02;970.38;;;435.73;;
78686;SDS011;68002;52.310;6.990;2023-07-28T14:35:27;982.10;;;445.15;;